sensor_id;sensor_type;location;lat;lon;timestamp;pressure;altitude;pressure_sealevel;temperature;humidity
30875;BME280;17581;43.222;27.924;2023-04-05T00:00:46;99949.31;;;5.26;88.25
30875;BME280;17581;43.222;27.924;2023-04-05T00:03:12;99953.06;;;5.11;88.30
30875;BME280;17581;43.222;27.924;2023-04-05T00:05:37;99955.22;;;5.06;88.20
30875;BME280;17581;43.222;27.924;2023-04-05T00:08:04;99965.75;;;5.08;88.74
30875;BME280;17581;43.222;27.924;2023-04-05T00:10:32;99951.81;;;5.04;88.99
30875;BME280;17581;43.222;27.924;2023-04-05T00:12:58;99956.16;;;5.05;89.23
30875;BME280;17581;43.222;27.924;2023-04-05T00:15:25;99952.63;;;5.05;89.51
30875;BME280;17581;43.222;27.924;2023-04-05T00:17:51;99964.59;;;5.12;89.45
30875;BME280;17581;43.222;27.924;2023-04-05T00:20:18;99950.41;;;5.11;89.50
30875;BME280;17581;43.222;27.924;2023-04-05T00:22:44;99951.81;;;5.04;89.41
30875;BME280;17581;43.222;27.924;2023-04-05T00:25:11;99955.31;;;4.92;88.76
30875;BME280;17581;43.222;27.924;2023-04-05T00:27:37;99962.47;;;5.04;89.02
30875;BME280;17581;43.222;27.924;2023-04-05T00:30:03;99943.25;;;4.99;89.29
30875;BME280;17581;43.222;27.924;2023-04-05T00:32:29;99961.41;;;5.07;89.46
30875;BME280;17581;43.222;27.924;2023-04-05T00:34:54;99964.91;;;5.07;89.59
30875;BME280;17581;43.222;27.924;2023-04-05T00:37:20;99970.97;;;5.09;89.87
30875;BME280;17581;43.222;27.924;2023-04-05T00:39:46;99966.28;;;4.87;88.70
30875;BME280;17581;43.222;27.924;2023-04-05T00:42:11;99969.81;;;4.88;88.71
30875;BME280;17581;43.222;27.924;2023-04-05T00:44:36;99979.19;;;4.93;88.89
30875;BME280;17581;43.222;27.924;2023-04-05T00:47:06;99975.13;;;4.88;89.19
30875;BME280;17581;43.222;27.924;2023-04-05T00:49:34;99961.81;;;4.88;89.22
30875;BME280;17581;43.222;27.924;2023-04-05T00:52:01;99983.34;;;4.85;89.34
30875;BME280;17581;43.222;27.924;2023-04-05T00:54:27;99978.00;;;4.85;89.21
30875;BME280;17581;43.222;27.924;2023-04-05T00:56:57;99964.00;;;4.69;89.58
30875;BME280;17581;43.222;27.924;2023-04-05T00:59:27;99973.81;;;4.81;90.17
30875;BME280;17581;43.222;27.924;2023-04-05T01:02:08;99972.66;;;4.72;90.43
30875;BME280;17581;43.222;27.924;2023-04-05T01:04:40;99964.56;;;4.86;90.66
30875;BME280;17581;43.222;27.924;2023-04-05T01:09:57;99981.09;;;4.79;90.68
30875;BME280;17581;43.222;27.924;2023-04-05T01:12:26;99976.94;;;4.87;91.28
30875;BME280;17581;43.222;27.924;2023-04-05T01:14:53;99977.78;;;4.75;90.93
30875;BME280;17581;43.222;27.924;2023-04-05T01:17:24;99968.84;;;4.76;90.99
30875;BME280;17581;43.222;27.924;2023-04-05T01:19:54;99968.50;;;4.81;90.93
30875;BME280;17581;43.222;27.924;2023-04-05T01:30:40;99975.94;;;4.63;90.32
30875;BME280;17581;43.222;27.924;2023-04-05T01:33:40;99989.97;;;4.53;90.18
30875;BME280;17581;43.222;27.924;2023-04-05T01:36:31;99991.47;;;4.57;90.99
30875;BME280;17581;43.222;27.924;2023-04-05T01:38:59;99986.56;;;4.51;91.31
30875;BME280;17581;43.222;27.924;2023-04-05T01:41:26;99985.59;;;4.52;91.83
30875;BME280;17581;43.222;27.924;2023-04-05T01:43:52;99999.16;;;4.34;91.75
30875;BME280;17581;43.222;27.924;2023-04-05T01:46:17;99977.72;;;4.23;91.79
30875;BME280;17581;43.222;27.924;2023-04-05T01:48:42;99974.06;;;4.38;92.02
30875;BME280;17581;43.222;27.924;2023-04-05T01:51:08;99990.03;;;4.38;92.30
30875;BME280;17581;43.222;27.924;2023-04-05T01:53:34;99996.09;;;4.40;92.56
30875;BME280;17581;43.222;27.924;2023-04-05T01:56:00;100002.72;;;4.48;92.47
30875;BME280;17581;43.222;27.924;2023-04-05T01:58:26;99991.44;;;4.44;92.95
30875;BME280;17581;43.222;27.924;2023-04-05T02:00:55;99990.72;;;4.55;93.39
30875;BME280;17581;43.222;27.924;2023-04-05T02:03:22;100001.25;;;4.56;93.33
30875;BME280;17581;43.222;27.924;2023-04-05T02:05:47;100007.34;;;4.58;93.15
30875;BME280;17581;43.222;27.924;2023-04-05T02:08:13;99986.47;;;4.52;92.42
30875;BME280;17581;43.222;27.924;2023-04-05T02:10:39;99987.28;;;4.40;91.79
30875;BME280;17581;43.222;27.924;2023-04-05T02:13:05;100002.19;;;4.43;91.73
30875;BME280;17581;43.222;27.924;2023-04-05T02:15:30;99995.91;;;4.44;91.74
30875;BME280;17581;43.222;27.924;2023-04-05T02:17:58;99998.34;;;4.47;91.91
30875;BME280;17581;43.222;27.924;2023-04-05T02:20:26;100004.28;;;4.37;92.12
30875;BME280;17581;43.222;27.924;2023-04-05T02:22:52;99990.97;;;4.37;92.05
30875;BME280;17581;43.222;27.924;2023-04-05T02:25:18;99987.78;;;4.32;92.08
30875;BME280;17581;43.222;27.924;2023-04-05T02:27:44;99983.00;;;4.37;92.15
30875;BME280;17581;43.222;27.924;2023-04-05T02:30:10;99981.06;;;4.27;92.31
30875;BME280;17581;43.222;27.924;2023-04-05T02:32:38;99978.06;;;4.31;92.33
30875;BME280;17581;43.222;27.924;2023-04-05T02:35:04;99981.72;;;4.30;92.10
30875;BME280;17581;43.222;27.924;2023-04-05T02:37:29;100006.13;;;4.37;92.01
30875;BME280;17581;43.222;27.924;2023-04-05T02:39:55;100000.03;;;4.35;91.53
30875;BME280;17581;43.222;27.924;2023-04-05T02:42:21;100002.59;;;4.36;91.81
30875;BME280;17581;43.222;27.924;2023-04-05T02:44:46;100012.28;;;4.37;91.97
30875;BME280;17581;43.222;27.924;2023-04-05T02:47:11;99983.41;;;4.31;92.06
30875;BME280;17581;43.222;27.924;2023-04-05T02:49:41;99998.22;;;4.35;91.83
30875;BME280;17581;43.222;27.924;2023-04-05T02:52:06;99986.06;;;4.31;91.41
30875;BME280;17581;43.222;27.924;2023-04-05T02:54:32;99997.47;;;4.33;91.49
30875;BME280;17581;43.222;27.924;2023-04-05T02:56:57;100001.75;;;4.36;91.11
30875;BME280;17581;43.222;27.924;2023-04-05T02:59:26;100017.91;;;4.33;90.51
30875;BME280;17581;43.222;27.924;2023-04-05T03:01:51;99999.97;;;4.22;90.46
30875;BME280;17581;43.222;27.924;2023-04-05T03:04:17;99995.75;;;4.32;90.25
30875;BME280;17581;43.222;27.924;2023-04-05T03:06:43;99985.91;;;4.20;90.45
30875;BME280;17581;43.222;27.924;2023-04-05T03:09:10;99992.75;;;4.24;90.36
30875;BME280;17581;43.222;27.924;2023-04-05T03:11:36;99990.13;;;4.10;90.41
30875;BME280;17581;43.222;27.924;2023-04-05T03:14:01;100013.00;;;4.13;90.55
30875;BME280;17581;43.222;27.924;2023-04-05T03:16:26;100013.00;;;4.13;90.30
30875;BME280;17581;43.222;27.924;2023-04-05T03:18:52;100011.00;;;4.16;90.42
30875;BME280;17581;43.222;27.924;2023-04-05T03:21:18;100006.69;;;4.01;90.68
30875;BME280;17581;43.222;27.924;2023-04-05T03:23:43;100002.41;;;3.99;90.98
30875;BME280;17581;43.222;27.924;2023-04-05T03:26:12;100007.28;;;3.92;91.29
30875;BME280;17581;43.222;27.924;2023-04-05T03:28:38;100013.53;;;4.05;91.25
30875;BME280;17581;43.222;27.924;2023-04-05T03:31:09;100014.00;;;4.12;91.55
30875;BME280;17581;43.222;27.924;2023-04-05T03:33:35;100039.94;;;4.08;91.98
30875;BME280;17581;43.222;27.924;2023-04-05T03:36:01;100038.41;;;4.04;91.64
30875;BME280;17581;43.222;27.924;2023-04-05T03:38:27;100067.00;;;4.15;92.39
30875;BME280;17581;43.222;27.924;2023-04-05T03:40:53;100041.47;;;4.12;92.15
30875;BME280;17581;43.222;27.924;2023-04-05T03:43:18;100056.44;;;4.27;92.84
30875;BME280;17581;43.222;27.924;2023-04-05T03:45:44;100039.16;;;4.20;93.08
30875;BME280;17581;43.222;27.924;2023-04-05T03:48:09;100055.22;;;4.19;93.00
30875;BME280;17581;43.222;27.924;2023-04-05T03:50:35;100063.44;;;4.28;92.97
30875;BME280;17581;43.222;27.924;2023-04-05T03:53:00;100068.34;;;4.22;93.10
30875;BME280;17581;43.222;27.924;2023-04-05T03:55:26;100071.44;;;4.28;93.05
30875;BME280;17581;43.222;27.924;2023-04-05T03:57:51;100061.91;;;4.38;93.17
30875;BME280;17581;43.222;27.924;2023-04-05T04:00:18;100056.91;;;4.34;93.24
30875;BME280;17581;43.222;27.924;2023-04-05T04:02:47;100062.41;;;4.31;92.99
30875;BME280;17581;43.222;27.924;2023-04-05T04:05:13;100053.72;;;4.42;92.31
30875;BME280;17581;43.222;27.924;2023-04-05T04:07:40;100067.38;;;4.50;92.37
30875;BME280;17581;43.222;27.924;2023-04-05T04:10:07;100058.78;;;4.32;91.48
30875;BME280;17581;43.222;27.924;2023-04-05T04:12:33;100045.38;;;4.33;90.87
30875;BME280;17581;43.222;27.924;2023-04-05T04:14:59;100043.88;;;4.29;91.40
30875;BME280;17581;43.222;27.924;2023-04-05T04:17:29;100055.06;;;4.34;91.54
30875;BME280;17581;43.222;27.924;2023-04-05T04:19:56;100073.69;;;4.34;92.07
30875;BME280;17581;43.222;27.924;2023-04-05T04:22:22;100083.59;;;4.32;92.30
30875;BME280;17581;43.222;27.924;2023-04-05T04:24:51;100086.25;;;4.32;92.42
30875;BME280;17581;43.222;27.924;2023-04-05T04:27:18;100075.53;;;4.20;92.62
30875;BME280;17581;43.222;27.924;2023-04-05T04:29:48;100069.00;;;4.11;91.54
30875;BME280;17581;43.222;27.924;2023-04-05T04:32:17;100066.06;;;4.02;91.34
30875;BME280;17581;43.222;27.924;2023-04-05T04:34:50;100099.78;;;4.29;92.07
30875;BME280;17581;43.222;27.924;2023-04-05T04:37:18;100095.19;;;4.31;92.45
30875;BME280;17581;43.222;27.924;2023-04-05T04:39:47;100090.44;;;4.36;92.81
30875;BME280;17581;43.222;27.924;2023-04-05T04:42:16;100072.09;;;4.32;93.07
30875;BME280;17581;43.222;27.924;2023-04-05T04:44:44;100077.53;;;4.30;93.21
30875;BME280;17581;43.222;27.924;2023-04-05T04:47:10;100097.91;;;4.44;92.91
30875;BME280;17581;43.222;27.924;2023-04-05T04:49:40;100098.03;;;4.43;92.63
30875;BME280;17581;43.222;27.924;2023-04-05T04:52:06;100087.38;;;4.43;92.61
30875;BME280;17581;43.222;27.924;2023-04-05T04:54:32;100097.09;;;4.29;92.12
30875;BME280;17581;43.222;27.924;2023-04-05T04:57:01;100081.69;;;4.34;92.38
30875;BME280;17581;43.222;27.924;2023-04-05T04:59:27;100086.81;;;4.37;92.55
30875;BME280;17581;43.222;27.924;2023-04-05T05:01:53;100088.44;;;4.40;92.48
30875;BME280;17581;43.222;27.924;2023-04-05T05:04:18;100092.31;;;4.34;92.62
30875;BME280;17581;43.222;27.924;2023-04-05T05:06:44;100075.63;;;4.32;92.55
30875;BME280;17581;43.222;27.924;2023-04-05T05:09:10;100087.28;;;4.44;92.56
30875;BME280;17581;43.222;27.924;2023-04-05T05:11:36;100089.28;;;4.40;92.58
30875;BME280;17581;43.222;27.924;2023-04-05T05:14:01;100072.94;;;4.32;93.10
30875;BME280;17581;43.222;27.924;2023-04-05T05:16:27;100083.25;;;4.24;93.13
30875;BME280;17581;43.222;27.924;2023-04-05T05:18:55;100069.63;;;4.29;94.21
30875;BME280;17581;43.222;27.924;2023-04-05T05:21:21;100069.16;;;4.22;93.71
30875;BME280;17581;43.222;27.924;2023-04-05T05:23:47;100052.66;;;4.17;93.98
30875;BME280;17581;43.222;27.924;2023-04-05T05:26:12;100061.97;;;4.24;93.96
30875;BME280;17581;43.222;27.924;2023-04-05T05:28:38;100071.22;;;4.31;94.37
30875;BME280;17581;43.222;27.924;2023-04-05T05:31:04;100092.38;;;4.20;93.98
30875;BME280;17581;43.222;27.924;2023-04-05T05:33:30;100076.22;;;4.23;93.33
30875;BME280;17581;43.222;27.924;2023-04-05T05:35:55;100087.03;;;4.20;92.97
30875;BME280;17581;43.222;27.924;2023-04-05T05:38:21;100115.47;;;4.34;93.18
30875;BME280;17581;43.222;27.924;2023-04-05T05:40:54;100082.59;;;4.21;93.29
30875;BME280;17581;43.222;27.924;2023-04-05T05:43:20;100099.28;;;4.37;93.64
30875;BME280;17581;43.222;27.924;2023-04-05T05:45:46;100089.38;;;4.39;94.26
30875;BME280;17581;43.222;27.924;2023-04-05T05:48:12;100085.41;;;4.32;93.51
30875;BME280;17581;43.222;27.924;2023-04-05T05:50:38;100095.06;;;4.47;93.52
30875;BME280;17581;43.222;27.924;2023-04-05T05:53:04;100133.66;;;4.54;93.50
30875;BME280;17581;43.222;27.924;2023-04-05T05:55:29;100143.06;;;4.60;93.63
30875;BME280;17581;43.222;27.924;2023-04-05T05:57:55;100140.69;;;4.55;93.13
30875;BME280;17581;43.222;27.924;2023-04-05T06:00:20;100125.34;;;4.59;92.86
30875;BME280;17581;43.222;27.924;2023-04-05T06:02:47;100105.91;;;4.44;92.92
30875;BME280;17581;43.222;27.924;2023-04-05T06:05:12;100125.94;;;4.64;93.40
30875;BME280;17581;43.222;27.924;2023-04-05T06:07:38;100135.81;;;4.62;92.90
30875;BME280;17581;43.222;27.924;2023-04-05T06:10:04;100120.22;;;4.56;92.48
30875;BME280;17581;43.222;27.924;2023-04-05T06:12:30;100165.69;;;4.67;92.46
30875;BME280;17581;43.222;27.924;2023-04-05T06:14:55;100151.59;;;4.65;92.42
30875;BME280;17581;43.222;27.924;2023-04-05T06:17:21;100177.28;;;4.66;92.73
30875;BME280;17581;43.222;27.924;2023-04-05T06:19:46;100174.53;;;4.67;92.18
30875;BME280;17581;43.222;27.924;2023-04-05T06:22:12;100172.91;;;4.65;92.44
30875;BME280;17581;43.222;27.924;2023-04-05T06:24:37;100185.72;;;4.72;91.99
30875;BME280;17581;43.222;27.924;2023-04-05T06:27:03;100183.38;;;4.68;92.32
30875;BME280;17581;43.222;27.924;2023-04-05T06:29:28;100198.38;;;4.69;92.50
30875;BME280;17581;43.222;27.924;2023-04-05T06:31:55;100185.72;;;4.72;92.65
30875;BME280;17581;43.222;27.924;2023-04-05T06:34:21;100199.53;;;4.79;92.94
30875;BME280;17581;43.222;27.924;2023-04-05T06:36:46;100204.78;;;4.93;93.01
30875;BME280;17581;43.222;27.924;2023-04-05T06:39:12;100198.91;;;4.88;92.84
30875;BME280;17581;43.222;27.924;2023-04-05T06:41:38;100216.81;;;4.86;92.14
30875;BME280;17581;43.222;27.924;2023-04-05T06:44:04;100233.63;;;5.01;92.24
30875;BME280;17581;43.222;27.924;2023-04-05T06:46:29;100231.97;;;5.12;92.63
30875;BME280;17581;43.222;27.924;2023-04-05T06:48:55;100238.81;;;5.16;92.51
30875;BME280;17581;43.222;27.924;2023-04-05T06:51:20;100232.28;;;5.34;92.21
30875;BME280;17581;43.222;27.924;2023-04-05T06:53:46;100248.31;;;5.47;92.04
30875;BME280;17581;43.222;27.924;2023-04-05T06:56:11;100227.47;;;5.39;91.82
30875;BME280;17581;43.222;27.924;2023-04-05T06:58:37;100237.25;;;5.53;91.07
30875;BME280;17581;43.222;27.924;2023-04-05T07:01:03;100241.09;;;5.62;90.65
30875;BME280;17581;43.222;27.924;2023-04-05T07:03:29;100238.53;;;5.60;89.98
30875;BME280;17581;43.222;27.924;2023-04-05T07:05:58;100243.00;;;5.60;89.01
30875;BME280;17581;43.222;27.924;2023-04-05T07:08:25;100243.81;;;5.74;88.58
30875;BME280;17581;43.222;27.924;2023-04-05T07:10:52;100247.34;;;5.75;88.65
30875;BME280;17581;43.222;27.924;2023-04-05T07:13:19;100248.06;;;5.77;88.15
30875;BME280;17581;43.222;27.924;2023-04-05T07:15:45;100242.03;;;5.87;88.15
30875;BME280;17581;43.222;27.924;2023-04-05T07:18:11;100253.69;;;5.99;88.31
30875;BME280;17581;43.222;27.924;2023-04-05T07:20:37;100258.19;;;5.98;87.29
30875;BME280;17581;43.222;27.924;2023-04-05T07:23:03;100257.75;;;6.05;86.88
30875;BME280;17581;43.222;27.924;2023-04-05T07:25:30;100259.25;;;5.96;86.59
30875;BME280;17581;43.222;27.924;2023-04-05T07:27:55;100258.06;;;6.00;86.22
30875;BME280;17581;43.222;27.924;2023-04-05T07:30:21;100246.31;;;5.90;85.57
30875;BME280;17581;43.222;27.924;2023-04-05T07:32:46;100254.00;;;5.94;85.44
30875;BME280;17581;43.222;27.924;2023-04-05T07:35:12;100262.97;;;6.06;84.90
30875;BME280;17581;43.222;27.924;2023-04-05T07:37:37;100274.00;;;6.14;85.22
30875;BME280;17581;43.222;27.924;2023-04-05T07:40:03;100278.59;;;6.25;85.11
30875;BME280;17581;43.222;27.924;2023-04-05T07:42:30;100275.69;;;6.28;83.40
30875;BME280;17581;43.222;27.924;2023-04-05T07:44:56;100276.34;;;6.31;82.80
30875;BME280;17581;43.222;27.924;2023-04-05T07:47:21;100271.97;;;6.30;82.95
30875;BME280;17581;43.222;27.924;2023-04-05T07:49:47;100273.34;;;6.48;83.21
30875;BME280;17581;43.222;27.924;2023-04-05T07:52:13;100272.16;;;6.65;83.56
30875;BME280;17581;43.222;27.924;2023-04-05T07:54:38;100273.75;;;6.68;83.83
30875;BME280;17581;43.222;27.924;2023-04-05T07:57:05;100274.38;;;6.84;83.14
30875;BME280;17581;43.222;27.924;2023-04-05T07:59:31;100272.34;;;6.87;81.88
30875;BME280;17581;43.222;27.924;2023-04-05T08:01:57;100262.47;;;7.00;81.97
30875;BME280;17581;43.222;27.924;2023-04-05T08:04:22;100271.44;;;7.12;81.98
30875;BME280;17581;43.222;27.924;2023-04-05T08:06:50;100268.00;;;7.10;81.13
30875;BME280;17581;43.222;27.924;2023-04-05T08:09:16;100279.97;;;7.17;79.86
30875;BME280;17581;43.222;27.924;2023-04-05T08:11:42;100264.16;;;7.14;79.83
30875;BME280;17581;43.222;27.924;2023-04-05T08:14:07;100279.44;;;7.25;80.05
30875;BME280;17581;43.222;27.924;2023-04-05T08:16:33;100271.09;;;7.17;79.62
30875;BME280;17581;43.222;27.924;2023-04-05T08:18:59;100274.91;;;7.25;80.16
30875;BME280;17581;43.222;27.924;2023-04-05T08:21:24;100270.50;;;7.37;79.81
30875;BME280;17581;43.222;27.924;2023-04-05T08:23:50;100268.31;;;7.42;80.37
30875;BME280;17581;43.222;27.924;2023-04-05T08:26:16;100285.78;;;7.58;80.75
30875;BME280;17581;43.222;27.924;2023-04-05T08:28:42;100279.97;;;7.64;80.26
30875;BME280;17581;43.222;27.924;2023-04-05T08:31:07;100296.59;;;7.81;78.86
30875;BME280;17581;43.222;27.924;2023-04-05T08:33:33;100295.56;;;7.71;77.99
30875;BME280;17581;43.222;27.924;2023-04-05T08:36:08;100292.31;;;7.67;76.85
30875;BME280;17581;43.222;27.924;2023-04-05T08:38:34;100290.09;;;7.61;77.96
30875;BME280;17581;43.222;27.924;2023-04-05T08:46:34;100290.31;;;7.93;80.26
30875;BME280;17581;43.222;27.924;2023-04-05T08:49:04;100290.72;;;7.99;79.46
30875;BME280;17581;43.222;27.924;2023-04-05T08:51:31;100304.50;;;8.17;78.20
30875;BME280;17581;43.222;27.924;2023-04-05T08:53:58;100300.66;;;8.21;78.72
30875;BME280;17581;43.222;27.924;2023-04-05T08:56:32;100308.78;;;8.19;78.84
30875;BME280;17581;43.222;27.924;2023-04-05T08:59:00;100298.53;;;8.13;78.25
30875;BME280;17581;43.222;27.924;2023-04-05T09:01:29;100304.13;;;8.10;78.73
30875;BME280;17581;43.222;27.924;2023-04-05T09:03:56;100291.09;;;8.06;78.62
30875;BME280;17581;43.222;27.924;2023-04-05T09:06:24;100303.66;;;8.16;78.76
30875;BME280;17581;43.222;27.924;2023-04-05T09:08:55;100298.94;;;8.20;78.71
30875;BME280;17581;43.222;27.924;2023-04-05T09:11:21;100305.03;;;8.22;78.71
30875;BME280;17581;43.222;27.924;2023-04-05T09:13:47;100297.00;;;8.22;77.71
30875;BME280;17581;43.222;27.924;2023-04-05T09:16:13;100305.13;;;8.20;76.47
30875;BME280;17581;43.222;27.924;2023-04-05T09:18:41;100297.00;;;8.22;77.72
30875;BME280;17581;43.222;27.924;2023-04-05T09:21:07;100305.13;;;8.20;78.50
30875;BME280;17581;43.222;27.924;2023-04-05T09:23:33;100311.34;;;8.10;78.14
30875;BME280;17581;43.222;27.924;2023-04-05T09:25:59;100325.44;;;8.01;79.21
30875;BME280;17581;43.222;27.924;2023-04-05T09:28:40;100332.66;;;7.88;78.45
30875;BME280;17581;43.222;27.924;2023-04-05T09:31:09;100320.19;;;7.76;79.09
30875;BME280;17581;43.222;27.924;2023-04-05T09:33:34;100321.75;;;7.67;79.20
30875;BME280;17581;43.222;27.924;2023-04-05T09:36:01;100307.72;;;7.63;80.00
30875;BME280;17581;43.222;27.924;2023-04-05T09:38:43;100331.94;;;7.86;80.84
30875;BME280;17581;43.222;27.924;2023-04-05T09:41:09;100312.28;;;8.09;82.42
30875;BME280;17581;43.222;27.924;2023-04-05T09:43:38;100309.81;;;8.30;82.39
30875;BME280;17581;43.222;27.924;2023-04-05T09:46:04;100314.94;;;8.33;78.72
30875;BME280;17581;43.222;27.924;2023-04-05T09:48:47;100304.91;;;8.58;78.22
30875;BME280;17581;43.222;27.924;2023-04-05T09:51:17;100315.28;;;8.74;76.62
30875;BME280;17581;43.222;27.924;2023-04-05T09:56:30;100314.53;;;8.94;76.08
30875;BME280;17581;43.222;27.924;2023-04-05T09:59:00;100311.97;;;9.04;76.82
30875;BME280;17581;43.222;27.924;2023-04-05T10:01:29;100321.34;;;9.32;76.98
30875;BME280;17581;43.222;27.924;2023-04-05T10:03:56;100321.94;;;9.35;76.30
30875;BME280;17581;43.222;27.924;2023-04-05T10:06:21;100323.25;;;9.52;75.80
30875;BME280;17581;43.222;27.924;2023-04-05T10:08:47;100327.50;;;9.65;75.05
30875;BME280;17581;43.222;27.924;2023-04-05T10:11:18;100336.47;;;9.75;74.60
30875;BME280;17581;43.222;27.924;2023-04-05T10:13:45;100338.91;;;9.90;73.74
30875;BME280;17581;43.222;27.924;2023-04-05T10:16:18;100332.41;;;9.92;72.42
30875;BME280;17581;43.222;27.924;2023-04-05T10:18:48;100323.97;;;9.97;72.41
30875;BME280;17581;43.222;27.924;2023-04-05T10:21:20;100328.69;;;10.04;71.79
30875;BME280;17581;43.222;27.924;2023-04-05T10:23:52;100338.81;;;10.12;70.94
30875;BME280;17581;43.222;27.924;2023-04-05T10:26:21;100343.44;;;10.21;71.50
30875;BME280;17581;43.222;27.924;2023-04-05T10:29:00;100332.19;;;10.27;71.93
30875;BME280;17581;43.222;27.924;2023-04-05T10:31:49;100339.50;;;10.25;70.06
30875;BME280;17581;43.222;27.924;2023-04-05T10:34:56;100336.88;;;10.14;71.02
30875;BME280;17581;43.222;27.924;2023-04-05T10:40:17;100349.34;;;10.04;70.75
30875;BME280;17581;43.222;27.924;2023-04-05T10:43:03;100357.22;;;9.84;70.30
30875;BME280;17581;43.222;27.924;2023-04-05T10:45:31;100348.78;;;9.89;71.55
30875;BME280;17581;43.222;27.924;2023-04-05T10:48:05;100350.88;;;9.85;71.23
30875;BME280;17581;43.222;27.924;2023-04-05T10:50:34;100350.88;;;9.85;70.67
30875;BME280;17581;43.222;27.924;2023-04-05T10:53:01;100356.69;;;10.02;71.30
30875;BME280;17581;43.222;27.924;2023-04-05T10:55:47;100348.88;;;9.99;70.15
30875;BME280;17581;43.222;27.924;2023-04-05T10:58:34;100359.81;;;10.18;69.90
30875;BME280;17581;43.222;27.924;2023-04-05T11:01:01;100365.31;;;10.16;69.48
30875;BME280;17581;43.222;27.924;2023-04-05T11:06:23;100344.78;;;10.15;70.46
30875;BME280;17581;43.222;27.924;2023-04-05T11:08:52;100367.88;;;10.18;70.24
30875;BME280;17581;43.222;27.924;2023-04-05T11:11:21;100359.28;;;9.92;70.00
30875;BME280;17581;43.222;27.924;2023-04-05T11:13:54;100368.66;;;9.98;70.71
30875;BME280;17581;43.222;27.924;2023-04-05T11:16:21;100360.13;;;9.93;71.77
30875;BME280;17581;43.222;27.924;2023-04-05T11:18:49;100365.25;;;9.96;71.56
30875;BME280;17581;43.222;27.924;2023-04-05T11:21:22;100353.03;;;9.92;72.53
30875;BME280;17581;43.222;27.924;2023-04-05T11:24:03;100354.63;;;9.94;72.33
30875;BME280;17581;43.222;27.924;2023-04-05T11:29:14;100360.72;;;9.96;71.63
30875;BME280;17581;43.222;27.924;2023-04-05T11:31:59;100355.78;;;9.80;71.76
30875;BME280;17581;43.222;27.924;2023-04-05T11:34:34;100347.81;;;9.79;72.13
30875;BME280;17581;43.222;27.924;2023-04-05T11:37:00;100354.31;;;9.76;72.38
30875;BME280;17581;43.222;27.924;2023-04-05T11:39:26;100361.75;;;9.84;72.23
30875;BME280;17581;43.222;27.924;2023-04-05T11:42:01;100363.56;;;9.83;72.41
30875;BME280;17581;43.222;27.924;2023-04-05T11:44:28;100368.19;;;9.81;73.08
30875;BME280;17581;43.222;27.924;2023-04-05T11:47:16;100369.91;;;9.82;72.71
30875;BME280;17581;43.222;27.924;2023-04-05T11:49:48;100360.38;;;9.90;72.69
30875;BME280;17581;43.222;27.924;2023-04-05T11:52:16;100358.50;;;10.01;72.32
30875;BME280;17581;43.222;27.924;2023-04-05T11:54:42;100360.31;;;10.12;72.26
30875;BME280;17581;43.222;27.924;2023-04-05T11:57:18;100354.84;;;10.02;71.85
30875;BME280;17581;43.222;27.924;2023-04-05T11:59:44;100358.00;;;10.07;72.51
30875;BME280;17581;43.222;27.924;2023-04-05T12:02:09;100370.38;;;9.99;73.09
30875;BME280;17581;43.222;27.924;2023-04-05T12:04:36;100356.72;;;9.91;72.90
30875;BME280;17581;43.222;27.924;2023-04-05T12:07:18;100361.34;;;10.00;73.50
30875;BME280;17581;43.222;27.924;2023-04-05T12:12:35;100358.66;;;9.89;73.38
30875;BME280;17581;43.222;27.924;2023-04-05T12:15:03;100368.66;;;9.98;74.75
30875;BME280;17581;43.222;27.924;2023-04-05T12:17:51;100372.59;;;9.82;74.78
30875;BME280;17581;43.222;27.924;2023-04-05T12:20:21;100360.38;;;9.90;75.30
30875;BME280;17581;43.222;27.924;2023-04-05T12:22:50;100369.13;;;10.03;74.92
30875;BME280;17581;43.222;27.924;2023-04-05T12:25:17;100362.25;;;10.10;74.76
30875;BME280;17581;43.222;27.924;2023-04-05T12:27:43;100356.41;;;10.16;74.59
30875;BME280;17581;43.222;27.924;2023-04-05T12:32:52;100347.34;;;10.49;73.85
30875;BME280;17581;43.222;27.924;2023-04-05T12:37:45;100346.63;;;10.77;71.18
30875;BME280;17581;43.222;27.924;2023-04-05T12:40:11;100339.88;;;10.82;70.81
30875;BME280;17581;43.222;27.924;2023-04-05T12:42:38;100353.25;;;10.93;70.19
30875;BME280;17581;43.222;27.924;2023-04-05T12:45:05;100350.56;;;10.93;70.36
30875;BME280;17581;43.222;27.924;2023-04-05T12:47:34;100339.56;;;10.76;69.94
30875;BME280;17581;43.222;27.924;2023-04-05T12:50:30;100351.94;;;10.67;69.22
30875;BME280;17581;43.222;27.924;2023-04-05T12:53:05;100343.13;;;10.56;70.49
30875;BME280;17581;43.222;27.924;2023-04-05T12:55:31;100336.38;;;10.41;70.47
30875;BME280;17581;43.222;27.924;2023-04-05T12:58:02;100343.31;;;10.43;71.31
30875;BME280;17581;43.222;27.924;2023-04-05T13:00:29;100344.94;;;10.34;70.87
30875;BME280;17581;43.222;27.924;2023-04-05T13:02:56;100349.47;;;10.34;71.70
30875;BME280;17581;43.222;27.924;2023-04-05T13:05:26;100356.81;;;10.32;72.44
30875;BME280;17581;43.222;27.924;2023-04-05T13:07:52;100358.78;;;10.30;72.38
30875;BME280;17581;43.222;27.924;2023-04-05T13:10:19;100346.78;;;10.34;72.25
30875;BME280;17581;43.222;27.924;2023-04-05T13:12:45;100342.59;;;10.41;71.14
30875;BME280;17581;43.222;27.924;2023-04-05T13:15:11;100333.22;;;10.56;71.42
30875;BME280;17581;43.222;27.924;2023-04-05T13:17:39;100329.44;;;10.89;71.32
30875;BME280;17581;43.222;27.924;2023-04-05T13:20:05;100331.28;;;11.19;70.80
30875;BME280;17581;43.222;27.924;2023-04-05T13:22:30;100341.28;;;11.47;68.84
30875;BME280;17581;43.222;27.924;2023-04-05T13:24:56;100331.38;;;11.57;67.63
30875;BME280;17581;43.222;27.924;2023-04-05T13:27:22;100332.53;;;11.64;67.87
30875;BME280;17581;43.222;27.924;2023-04-05T13:29:47;100340.34;;;11.67;68.04